Echo — WDH5873 — position and weather

sailwx.info

Track history (hours):
 
Tides and Currents Weather Stations Pressure Air Temp Water Temp Dewpoint Dewpoint Depression Visibility Wind Speed Wind Dir Waves Ship Positions

Echo

Owner: Pernick, Jeffrey R, Green Cove Springs, FL. More information available from US FCC via Universal Licensing System and Coast Guard Vessel Documentation Center.

Last reported at 2018-Feb-05 06:07 UTC. Time now 2018-Feb-23 20:21 UTC.
Position N 17°38' W 063°16'.
Warning: this ship's position is 18 days out of date.

Length 14 m.

Type: Sailing vessel. MMSI: 367632340.

Date/timePositionNaut miles runAvg speedWind from/ knotsBaromVisibWave heightAir tempDewpointWater temp
2018-Feb-05 06:07N 17°38' W 063°16'0 0.1
2018-Feb-05 00:37N 17°38' W 063°15'0 0.0
2018-Feb-04 21:25N 17°38' W 063°15'0 0.0
2018-Feb-04 20:43N 17°38' W 063°15'0 0.0
2018-Feb-04 13:52N 17°38' W 063°15'0 0.0
2018-Feb-04 11:12N 17°38' W 063°15'0 0.0
2018-Feb-04 07:36N 17°38' W 063°15'0 0.0
2018-Feb-03 22:20N 17°38' W 063°15'0 0.0
2018-Feb-03 20:09N 17°38' W 063°15'0 0.0
2018-Feb-03 17:26N 17°38' W 063°15'0 0.0
2018-Feb-03 03:17N 17°38' W 063°15'0 0.0
2018-Feb-03 00:35N 17°38' W 063°15'0 0.0
2018-Feb-03 00:05N 17°38' W 063°15'0 0.0
2018-Feb-02 23:50N 17°38' W 063°15'0 0.0
2018-Feb-02 23:02N 17°38' W 063°15'0 0.0
2018-Feb-02 18:15N 17°38' W 063°15'82 2.6
2018-Feb-01 10:41N 17°05' W 061°57'1 6.2
2018-Feb-01 10:30N 17°05' W 061°56'6 0.4
2018-Jan-31 19:11N 17°01' W 061°51'1 5.4
2018-Jan-31 19:00N 17°01' W 061°50'0 0.2
2018-Jan-31 18:30N 17°01' W 061°50'0 0.0
2018-Jan-31 18:00N 17°01' W 061°50'0 0.0
2018-Jan-31 17:30N 17°01' W 061°50'0 0.0
2018-Jan-31 17:00N 17°01' W 061°50'0 0.0
2018-Jan-31 16:30N 17°01' W 061°50'0 0.2
2018-Jan-31 16:00N 17°01' W 061°50'2 4.9
2018-Jan-31 15:30N 17°00' W 061°47'1 2.3
2018-Jan-31 14:58N 17°01' W 061°46'0 0.0
2018-Jan-31 14:28N 17°01' W 061°46'0 0.0
2018-Jan-31 12:55N 17°01' W 061°46'0 0.0
2018-Jan-31 12:25N 17°01' W 061°46'0 0.0
2018-Jan-31 11:58N 17°01' W 061°46'0 0.0
2018-Jan-31 11:28N 17°01' W 061°46'0 0.0
2018-Jan-31 10:58N 17°01' W 061°46'0 0.0
2018-Jan-31 10:28N 17°01' W 061°46'0 0.0
2018-Jan-31 09:58N 17°01' W 061°46'0 0.0
2018-Jan-31 09:28N 17°01' W 061°46'0 0.0
2018-Jan-31 08:58N 17°01' W 061°46'0 0.0
2018-Jan-31 08:28N 17°01' W 061°46'0 0.0
2018-Jan-31 07:58N 17°01' W 061°46'0 0.0
2018-Jan-31 07:28N 17°01' W 061°46'0 0.0
2018-Jan-31 06:58N 17°01' W 061°46'0 0.0
2018-Jan-31 06:28N 17°01' W 061°46'0 0.0
2018-Jan-31 05:58N 17°01' W 061°46'0 0.0
2018-Jan-31 05:28N 17°01' W 061°46'0 0.0
2018-Jan-31 04:58N 17°01' W 061°46'0 0.0
2018-Jan-31 04:28N 17°01' W 061°46'0 0.0
2018-Jan-31 03:58N 17°01' W 061°46'0 0.0
2018-Jan-31 03:28N 17°01' W 061°46'0 0.0
2018-Jan-31 02:58N 17°01' W 061°46'0 0.0
2018-Jan-31 02:28N 17°01' W 061°46'0 0.0
2018-Jan-31 01:58N 17°01' W 061°46'0 0.0
2018-Jan-31 01:28N 17°01' W 061°46'0 0.0
2018-Jan-31 00:58N 17°01' W 061°46'0 0.0
2018-Jan-30 23:58N 17°01' W 061°46'0 0.0
2018-Jan-30 23:28N 17°01' W 061°46'0 0.0
2018-Jan-30 22:58N 17°01' W 061°46'0 0.0
2018-Jan-30 22:28N 17°01' W 061°46'0 0.0
2018-Jan-30 21:28N 17°01' W 061°46'0 0.0
2018-Jan-30 20:58N 17°01' W 061°46'0 0.0
2018-Jan-30 20:28N 17°01' W 061°46'0 0.0
2018-Jan-30 19:58N 17°01' W 061°46'0 0.0
2018-Jan-30 19:28N 17°01' W 061°46'0 0.0
2018-Jan-30 18:58N 17°01' W 061°46'0 0.0
2018-Jan-30 18:28N 17°01' W 061°46'0 0.0
2018-Jan-30 17:58N 17°01' W 061°46'0 0.0
2018-Jan-30 17:28N 17°01' W 061°46'0 0.0
2018-Jan-30 16:58N 17°01' W 061°46'0 0.0
2018-Jan-30 16:28N 17°01' W 061°46'0 0.0
2018-Jan-30 15:55N 17°01' W 061°46'0 0.0
2018-Jan-30 15:28N 17°01' W 061°46'0 0.0
2018-Jan-30 14:58N 17°01' W 061°46'0 0.0
2018-Jan-30 14:28N 17°01' W 061°46'0 0.0
2018-Jan-30 13:28N 17°01' W 061°46'0 0.0
2018-Jan-30 12:58N 17°01' W 061°46'0 0.0
2018-Jan-30 12:28N 17°01' W 061°46'0 0.0
2018-Jan-30 11:58N 17°01' W 061°46'0 0.0
2018-Jan-30 11:28N 17°01' W 061°46'0 0.0
2018-Jan-30 10:28N 17°01' W 061°46'0 0.0
2018-Jan-30 09:28N 17°01' W 061°46'0 0.0
2018-Jan-30 08:58N 17°01' W 061°46'0 0.0
2018-Jan-30 08:30N 17°01' W 061°46'0 0.0
2018-Jan-30 07:57N 17°01' W 061°46'0 0.0
2018-Jan-30 07:30N 17°01' W 061°46'0 0.0
2018-Jan-30 07:00N 17°01' W 061°46'0 0.0
2018-Jan-30 06:27N 17°01' W 061°46'0 0.0
2018-Jan-30 06:00N 17°01' W 061°46'0 0.0
2018-Jan-30 05:30N 17°01' W 061°46'0 0.0
2018-Jan-30 05:00N 17°01' W 061°46'0 0.0
2018-Jan-30 04:30N 17°01' W 061°46'0 0.0
2018-Jan-30 04:00N 17°01' W 061°46'0 0.0
2018-Jan-30 03:30N 17°01' W 061°46'0 0.0
2018-Jan-30 03:00N 17°01' W 061°46'0 0.0
2018-Jan-30 02:30N 17°01' W 061°46'0 0.0
2018-Jan-30 02:00N 17°01' W 061°46'0 0.0
2018-Jan-30 01:30N 17°01' W 061°46'0 0.0
2018-Jan-30 00:57N 17°01' W 061°46'0 0.0
2018-Jan-30 00:28N 17°01' W 061°46'0 0.0
2018-Jan-29 23:58N 17°01' W 061°46'0 0.0
2018-Jan-29 23:28N 17°01' W 061°46'0 0.0
2018-Jan-29 22:58N 17°01' W 061°46'0 0.0
2018-Jan-29 22:28N 17°01' W 061°46'0 0.0
2018-Jan-29 21:58N 17°01' W 061°46'0 0.0
2018-Jan-29 21:25N 17°01' W 061°46'0 0.0
2018-Jan-29 20:58N 17°01' W 061°46'0 0.0
2018-Jan-29 20:28N 17°01' W 061°46'0 0.0
2018-Jan-29 19:58N 17°01' W 061°46'0 0.0
2018-Jan-29 19:28N 17°01' W 061°46'0 0.0
2018-Jan-29 18:58N 17°01' W 061°46'0 0.0
2018-Jan-29 18:28N 17°01' W 061°46'0 0.0
2018-Jan-29 17:58N 17°01' W 061°46'0 0.0
2018-Jan-29 17:28N 17°01' W 061°46'0 0.0
2018-Jan-29 16:58N 17°01' W 061°46'0 0.0
2018-Jan-29 16:28N 17°01' W 061°46'0 0.0
2018-Jan-29 15:58N 17°01' W 061°46'0 0.0
2018-Jan-29 15:25N 17°01' W 061°46'0 0.0
2018-Jan-29 14:58N 17°01' W 061°46'0 0.0
2018-Jan-29 14:28N 17°01' W 061°46'0 0.0
2018-Jan-29 13:58N 17°01' W 061°46'0 0.0
2018-Jan-29 13:28N 17°01' W 061°46'0 0.0
2018-Jan-29 12:58N 17°01' W 061°46'0 0.0
2018-Jan-29 12:28N 17°01' W 061°46'0 0.0
2018-Jan-29 11:58N 17°01' W 061°46'0 0.0
2018-Jan-29 11:25N 17°01' W 061°46'0 0.0
2018-Jan-29 10:58N 17°01' W 061°46'0 0.0
2018-Jan-29 10:28N 17°01' W 061°46'0 0.0
2018-Jan-29 09:55N 17°01' W 061°46'0 0.0
2018-Jan-29 09:28N 17°01' W 061°46'0 0.0
2018-Jan-29 08:58N 17°01' W 061°46'0 0.0
2018-Jan-29 08:28N 17°01' W 061°46'0 0.0
2018-Jan-29 07:58N 17°01' W 061°46'0 0.0
2018-Jan-29 07:28N 17°01' W 061°46'0 0.0
2018-Jan-29 06:58N 17°01' W 061°46'0 0.0
2018-Jan-29 06:28N 17°01' W 061°46'0 0.0
2018-Jan-29 05:58N 17°01' W 061°46'0 0.0
2018-Jan-29 05:28N 17°01' W 061°46'0 0.0
2018-Jan-29 04:58N 17°01' W 061°46'0 0.0
2018-Jan-29 04:28N 17°01' W 061°46'0 0.0
2018-Jan-29 03:58N 17°01' W 061°46'0 0.0
2018-Jan-29 03:28N 17°01' W 061°46'0 0.0
2018-Jan-29 02:58N 17°01' W 061°46'0 0.0
2018-Jan-29 02:28N 17°01' W 061°46'0 0.0
2018-Jan-29 01:58N 17°01' W 061°46'0 0.0
2018-Jan-29 01:28N 17°01' W 061°46'0 0.0
2018-Jan-29 00:58N 17°01' W 061°46'0 0.0
2018-Jan-29 00:25N 17°01' W 061°46'0 0.0
2018-Jan-28 23:58N 17°01' W 061°46'0 0.0
2018-Jan-28 23:28N 17°01' W 061°46'0 0.0
2018-Jan-28 22:58N 17°01' W 061°46'0 0.0
2018-Jan-28 22:28N 17°01' W 061°46'0 0.0
2018-Jan-28 21:58N 17°01' W 061°46'0 0.0
2018-Jan-28 21:25N 17°01' W 061°46'0 0.0
2018-Jan-28 20:58N 17°01' W 061°46'0 0.0
2018-Jan-28 20:28N 17°01' W 061°46'0 0.0
2018-Jan-28 19:58N 17°01' W 061°46'0 0.0
2018-Jan-28 19:28N 17°01' W 061°46'0 0.0
2018-Jan-28 18:58N 17°01' W 061°46'0 0.0
2018-Jan-28 18:28N 17°01' W 061°46'0 0.0
2018-Jan-28 17:58N 17°01' W 061°46'0 0.0
2018-Jan-28 17:28N 17°01' W 061°46'0 0.0
2018-Jan-28 16:58N 17°01' W 061°46'0 0.0
2018-Jan-28 16:28N 17°01' W 061°46'0 0.0
2018-Jan-28 04:57N 17°01' W 061°46'0 0.0
2018-Jan-28 04:30N 17°01' W 061°46'0 0.0
2018-Jan-28 04:00N 17°01' W 061°46'0 0.0
2018-Jan-28 03:30N 17°01' W 061°46'0 0.0
2018-Jan-28 03:00N 17°01' W 061°46'0 0.0
2018-Jan-28 02:30N 17°01' W 061°46'0 0.0
2018-Jan-28 02:00N 17°01' W 061°46'0 0.0
2018-Jan-28 01:30N 17°01' W 061°46'0 0.0
2018-Jan-28 01:00N 17°01' W 061°46'0 0.0
2018-Jan-28 00:30N 17°01' W 061°46'0 0.0
2018-Jan-28 00:00N 17°01' W 061°46'0 0.0
2018-Jan-27 23:30N 17°01' W 061°46'0 0.0
2018-Jan-27 23:00N 17°01' W 061°46'0 0.0
2018-Jan-27 22:30N 17°01' W 061°46'0 0.0
2018-Jan-27 22:00N 17°01' W 061°46'0 0.0
2018-Jan-27 21:30N 17°01' W 061°46'0 0.0
2018-Jan-27 21:00N 17°01' W 061°46'0 0.0
2018-Jan-27 20:30N 17°01' W 061°46'0 0.0
2018-Jan-27 20:00N 17°01' W 061°46'0 0.0
2018-Jan-27 19:30N 17°01' W 061°46'0 0.0
2018-Jan-27 19:00N 17°01' W 061°46'0 0.0
2018-Jan-27 18:30N 17°01' W 061°46'0 0.0
2018-Jan-27 18:00N 17°01' W 061°46'0 0.0
2018-Jan-27 17:30N 17°01' W 061°46'0 0.0
2018-Jan-27 17:00N 17°01' W 061°46'0 0.0
2018-Jan-27 16:30N 17°01' W 061°46'0 0.0
2018-Jan-27 16:00N 17°01' W 061°46'0 0.0
2018-Jan-27 15:30N 17°01' W 061°46'0 0.0
2018-Jan-27 15:00N 17°01' W 061°46'0 0.0
2018-Jan-27 14:30N 17°01' W 061°46'0 0.0
2018-Jan-27 14:00N 17°01' W 061°46'0 0.0
2018-Jan-27 13:30N 17°01' W 061°46'0 0.0
2018-Jan-27 13:00N 17°01' W 061°46'0 0.0
2018-Jan-27 12:30N 17°01' W 061°46'0 0.0
2018-Jan-27 11:57N 17°01' W 061°46'0 0.0
2018-Jan-27 11:30N 17°01' W 061°46'0 0.0
2018-Jan-27 11:00N 17°01' W 061°46'0 0.0
2018-Jan-27 10:30N 17°01' W 061°46'0 0.0
2018-Jan-27 10:00N 17°01' W 061°46'0 0.0
2018-Jan-27 09:30N 17°01' W 061°46'0 0.0
2018-Jan-27 09:00N 17°01' W 061°46'0 0.0
2018-Jan-27 08:30N 17°01' W 061°46'0 0.0
2018-Jan-27 08:00N 17°01' W 061°46'0 0.0
2018-Jan-27 07:30N 17°01' W 061°46'0 0.0
2018-Jan-27 07:00N 17°01' W 061°46'0 0.0
2018-Jan-27 06:30N 17°01' W 061°46'0 0.0
2018-Jan-27 06:00N 17°01' W 061°46'0 0.0
2018-Jan-27 05:30N 17°01' W 061°46'0 0.0
2018-Jan-27 05:00N 17°01' W 061°46'0 0.0
2018-Jan-27 04:30N 17°01' W 061°46'0 0.0
2018-Jan-27 04:00N 17°01' W 061°46'0 0.0
2018-Jan-27 03:30N 17°01' W 061°46'0 0.0
2018-Jan-27 03:00N 17°01' W 061°46'0 0.0
2018-Jan-27 02:30N 17°01' W 061°46'0 0.0
2018-Jan-27 02:00N 17°01' W 061°46'0 0.0
2018-Jan-27 01:27N 17°01' W 061°46'0 0.0
2018-Jan-27 01:00N 17°01' W 061°46'0 0.0
2018-Jan-27 00:30N 17°01' W 061°46'0 0.0
2018-Jan-27 00:00N 17°01' W 061°46'0 0.0
2018-Jan-26 23:30N 17°01' W 061°46'0 0.0
2018-Jan-26 23:00N 17°01' W 061°46'0 0.0
2018-Jan-26 22:30N 17°01' W 061°46'0 0.0
2018-Jan-26 22:00N 17°01' W 061°46'0 0.0
2018-Jan-26 21:30N 17°01' W 061°46'0 0.0
2018-Jan-26 21:00N 17°01' W 061°46'0 0.0
2018-Jan-26 20:30N 17°01' W 061°46'0 0.0
2018-Jan-26 20:00N 17°01' W 061°46'0 0.0
2018-Jan-26 19:30N 17°01' W 061°46'0 0.0
2018-Jan-26 19:00N 17°01' W 061°46'0 0.0
2018-Jan-26 18:30N 17°01' W 061°46'0 0.0
2018-Jan-26 18:00N 17°01' W 061°46'0 0.0
2018-Jan-26 17:30N 17°01' W 061°46'0 0.0
2018-Jan-26 17:00N 17°01' W 061°46'0 0.0
2018-Jan-26 16:30N 17°01' W 061°46'0 0.0
2018-Jan-26 16:00N 17°01' W 061°46'0 0.0
2018-Jan-26 15:30N 17°01' W 061°46'  
Track history (hours):
 
Tides and Currents Weather Stations Pressure Air Temp Water Temp Dewpoint Dewpoint Depression Visibility Wind Speed Wind Dir Waves Ship Positions

Echo

Owner: Pernick, Jeffrey R, Green Cove Springs, FL. More information available from US FCC via Universal Licensing System and Coast Guard Vessel Documentation Center.

Last reported at 2018-Feb-05 06:07 UTC. Time now 2018-Feb-23 20:21 UTC.
Position N 17°38' W 063°16'.
Warning: this ship's position is 18 days out of date.

Length 14 m.

Type: Sailing vessel. MMSI: 367632340.

Date/timePositionNaut miles runAvg speedWind from/ knotsBaromVisibWave heightAir tempDewpointWater temp
2018-Feb-05 06:07N 17°38' W 063°16'0 0.1
2018-Feb-05 00:37N 17°38' W 063°15'0 0.0
2018-Feb-04 21:25N 17°38' W 063°15'0 0.0
2018-Feb-04 20:43N 17°38' W 063°15'0 0.0
2018-Feb-04 13:52N 17°38' W 063°15'0 0.0
2018-Feb-04 11:12N 17°38' W 063°15'0 0.0
2018-Feb-04 07:36N 17°38' W 063°15'0 0.0
2018-Feb-03 22:20N 17°38' W 063°15'0 0.0
2018-Feb-03 20:09N 17°38' W 063°15'0 0.0
2018-Feb-03 17:26N 17°38' W 063°15'0 0.0
2018-Feb-03 03:17N 17°38' W 063°15'0 0.0
2018-Feb-03 00:35N 17°38' W 063°15'0 0.0
2018-Feb-03 00:05N 17°38' W 063°15'0 0.0
2018-Feb-02 23:50N 17°38' W 063°15'0 0.0
2018-Feb-02 23:02N 17°38' W 063°15'0 0.0
2018-Feb-02 18:15N 17°38' W 063°15'82 2.6
2018-Feb-01 10:41N 17°05' W 061°57'1 6.2
2018-Feb-01 10:30N 17°05' W 061°56'6 0.4
2018-Jan-31 19:11N 17°01' W 061°51'1 5.4
2018-Jan-31 19:00N 17°01' W 061°50'0 0.2
2018-Jan-31 18:30N 17°01' W 061°50'0 0.0
2018-Jan-31 18:00N 17°01' W 061°50'0 0.0
2018-Jan-31 17:30N 17°01' W 061°50'0 0.0
2018-Jan-31 17:00N 17°01' W 061°50'0 0.0
2018-Jan-31 16:30N 17°01' W 061°50'0 0.2
2018-Jan-31 16:00N 17°01' W 061°50'2 4.9
2018-Jan-31 15:30N 17°00' W 061°47'1 2.3
2018-Jan-31 14:58N 17°01' W 061°46'0 0.0
2018-Jan-31 14:28N 17°01' W 061°46'0 0.0
2018-Jan-31 12:55N 17°01' W 061°46'0 0.0
2018-Jan-31 12:25N 17°01' W 061°46'0 0.0
2018-Jan-31 11:58N 17°01' W 061°46'0 0.0
2018-Jan-31 11:28N 17°01' W 061°46'0 0.0
2018-Jan-31 10:58N 17°01' W 061°46'0 0.0
2018-Jan-31 10:28N 17°01' W 061°46'0 0.0
2018-Jan-31 09:58N 17°01' W 061°46'0 0.0
2018-Jan-31 09:28N 17°01' W 061°46'0 0.0
2018-Jan-31 08:58N 17°01' W 061°46'0 0.0
2018-Jan-31 08:28N 17°01' W 061°46'0 0.0
2018-Jan-31 07:58N 17°01' W 061°46'0 0.0
2018-Jan-31 07:28N 17°01' W 061°46'0 0.0
2018-Jan-31 06:58N 17°01' W 061°46'0 0.0
2018-Jan-31 06:28N 17°01' W 061°46'0 0.0
2018-Jan-31 05:58N 17°01' W 061°46'0 0.0
2018-Jan-31 05:28N 17°01' W 061°46'0 0.0
2018-Jan-31 04:58N 17°01' W 061°46'0 0.0
2018-Jan-31 04:28N 17°01' W 061°46'0 0.0
2018-Jan-31 03:58N 17°01' W 061°46'0 0.0
2018-Jan-31 03:28N 17°01' W 061°46'0 0.0
2018-Jan-31 02:58N 17°01' W 061°46'0 0.0
2018-Jan-31 02:28N 17°01' W 061°46'0 0.0
2018-Jan-31 01:58N 17°01' W 061°46'0 0.0
2018-Jan-31 01:28N 17°01' W 061°46'0 0.0
2018-Jan-31 00:58N 17°01' W 061°46'0 0.0
2018-Jan-30 23:58N 17°01' W 061°46'0 0.0
2018-Jan-30 23:28N 17°01' W 061°46'0 0.0
2018-Jan-30 22:58N 17°01' W 061°46'0 0.0
2018-Jan-30 22:28N 17°01' W 061°46'0 0.0
2018-Jan-30 21:28N 17°01' W 061°46'0 0.0
2018-Jan-30 20:58N 17°01' W 061°46'0 0.0
2018-Jan-30 20:28N 17°01' W 061°46'0 0.0
2018-Jan-30 19:58N 17°01' W 061°46'0 0.0
2018-Jan-30 19:28N 17°01' W 061°46'0 0.0
2018-Jan-30 18:58N 17°01' W 061°46'0 0.0
2018-Jan-30 18:28N 17°01' W 061°46'0 0.0
2018-Jan-30 17:58N 17°01' W 061°46'0 0.0
2018-Jan-30 17:28N 17°01' W 061°46'0 0.0
2018-Jan-30 16:58N 17°01' W 061°46'0 0.0
2018-Jan-30 16:28N 17°01' W 061°46'0 0.0
2018-Jan-30 15:55N 17°01' W 061°46'0 0.0
2018-Jan-30 15:28N 17°01' W 061°46'0 0.0
2018-Jan-30 14:58N 17°01' W 061°46'0 0.0
2018-Jan-30 14:28N 17°01' W 061°46'0 0.0
2018-Jan-30 13:28N 17°01' W 061°46'0 0.0
2018-Jan-30 12:58N 17°01' W 061°46'0 0.0
2018-Jan-30 12:28N 17°01' W 061°46'0 0.0
2018-Jan-30 11:58N 17°01' W 061°46'0 0.0
2018-Jan-30 11:28N 17°01' W 061°46'0 0.0
2018-Jan-30 10:28N 17°01' W 061°46'0 0.0
2018-Jan-30 09:28N 17°01' W 061°46'0 0.0
2018-Jan-30 08:58N 17°01' W 061°46'0 0.0
2018-Jan-30 08:30N 17°01' W 061°46'0 0.0
2018-Jan-30 07:57N 17°01' W 061°46'0 0.0
2018-Jan-30 07:30N 17°01' W 061°46'0 0.0
2018-Jan-30 07:00N 17°01' W 061°46'0 0.0
2018-Jan-30 06:27N 17°01' W 061°46'0 0.0
2018-Jan-30 06:00N 17°01' W 061°46'0 0.0
2018-Jan-30 05:30N 17°01' W 061°46'0 0.0
2018-Jan-30 05:00N 17°01' W 061°46'0 0.0
2018-Jan-30 04:30N 17°01' W 061°46'0 0.0
2018-Jan-30 04:00N 17°01' W 061°46'0 0.0
2018-Jan-30 03:30N 17°01' W 061°46'0 0.0
2018-Jan-30 03:00N 17°01' W 061°46'0 0.0
2018-Jan-30 02:30N 17°01' W 061°46'0 0.0
2018-Jan-30 02:00N 17°01' W 061°46'0 0.0
2018-Jan-30 01:30N 17°01' W 061°46'0 0.0
2018-Jan-30 00:57N 17°01' W 061°46'0 0.0
2018-Jan-30 00:28N 17°01' W 061°46'0 0.0
2018-Jan-29 23:58N 17°01' W 061°46'0 0.0
2018-Jan-29 23:28N 17°01' W 061°46'0 0.0
2018-Jan-29 22:58N 17°01' W 061°46'0 0.0
2018-Jan-29 22:28N 17°01' W 061°46'0 0.0
2018-Jan-29 21:58N 17°01' W 061°46'0 0.0
2018-Jan-29 21:25N 17°01' W 061°46'0 0.0
2018-Jan-29 20:58N 17°01' W 061°46'0 0.0
2018-Jan-29 20:28N 17°01' W 061°46'0 0.0
2018-Jan-29 19:58N 17°01' W 061°46'0 0.0
2018-Jan-29 19:28N 17°01' W 061°46'0 0.0
2018-Jan-29 18:58N 17°01' W 061°46'0 0.0
2018-Jan-29 18:28N 17°01' W 061°46'0 0.0
2018-Jan-29 17:58N 17°01' W 061°46'0 0.0
2018-Jan-29 17:28N 17°01' W 061°46'0 0.0
2018-Jan-29 16:58N 17°01' W 061°46'0 0.0
2018-Jan-29 16:28N 17°01' W 061°46'0 0.0
2018-Jan-29 15:58N 17°01' W 061°46'0 0.0
2018-Jan-29 15:25N 17°01' W 061°46'0 0.0
2018-Jan-29 14:58N 17°01' W 061°46'0 0.0
2018-Jan-29 14:28N 17°01' W 061°46'0 0.0
2018-Jan-29 13:58N 17°01' W 061°46'0 0.0
2018-Jan-29 13:28N 17°01' W 061°46'0 0.0
2018-Jan-29 12:58N 17°01' W 061°46'0 0.0
2018-Jan-29 12:28N 17°01' W 061°46'0 0.0
2018-Jan-29 11:58N 17°01' W 061°46'0 0.0
2018-Jan-29 11:25N 17°01' W 061°46'0 0.0
2018-Jan-29 10:58N 17°01' W 061°46'0 0.0
2018-Jan-29 10:28N 17°01' W 061°46'0 0.0
2018-Jan-29 09:55N 17°01' W 061°46'0 0.0
2018-Jan-29 09:28N 17°01' W 061°46'0 0.0
2018-Jan-29 08:58N 17°01' W 061°46'0 0.0
2018-Jan-29 08:28N 17°01' W 061°46'0 0.0
2018-Jan-29 07:58N 17°01' W 061°46'0 0.0
2018-Jan-29 07:28N 17°01' W 061°46'0 0.0
2018-Jan-29 06:58N 17°01' W 061°46'0 0.0
2018-Jan-29 06:28N 17°01' W 061°46'0 0.0
2018-Jan-29 05:58N 17°01' W 061°46'0 0.0
2018-Jan-29 05:28N 17°01' W 061°46'0 0.0
2018-Jan-29 04:58N 17°01' W 061°46'0 0.0
2018-Jan-29 04:28N 17°01' W 061°46'0 0.0
2018-Jan-29 03:58N 17°01' W 061°46'0 0.0
2018-Jan-29 03:28N 17°01' W 061°46'0 0.0
2018-Jan-29 02:58N 17°01' W 061°46'0 0.0
2018-Jan-29 02:28N 17°01' W 061°46'0 0.0
2018-Jan-29 01:58N 17°01' W 061°46'0 0.0
2018-Jan-29 01:28N 17°01' W 061°46'0 0.0
2018-Jan-29 00:58N 17°01' W 061°46'0 0.0
2018-Jan-29 00:25N 17°01' W 061°46'0 0.0
2018-Jan-28 23:58N 17°01' W 061°46'0 0.0
2018-Jan-28 23:28N 17°01' W 061°46'0 0.0
2018-Jan-28 22:58N 17°01' W 061°46'0 0.0
2018-Jan-28 22:28N 17°01' W 061°46'0 0.0
2018-Jan-28 21:58N 17°01' W 061°46'0 0.0
2018-Jan-28 21:25N 17°01' W 061°46'0 0.0
2018-Jan-28 20:58N 17°01' W 061°46'0 0.0
2018-Jan-28 20:28N 17°01' W 061°46'0 0.0
2018-Jan-28 19:58N 17°01' W 061°46'0 0.0
2018-Jan-28 19:28N 17°01' W 061°46'0 0.0
2018-Jan-28 18:58N 17°01' W 061°46'0 0.0
2018-Jan-28 18:28N 17°01' W 061°46'0 0.0
2018-Jan-28 17:58N 17°01' W 061°46'0 0.0
2018-Jan-28 17:28N 17°01' W 061°46'0 0.0
2018-Jan-28 16:58N 17°01' W 061°46'0 0.0
2018-Jan-28 16:28N 17°01' W 061°46'0 0.0
2018-Jan-28 04:57N 17°01' W 061°46'0 0.0
2018-Jan-28 04:30N 17°01' W 061°46'0 0.0
2018-Jan-28 04:00N 17°01' W 061°46'0 0.0
2018-Jan-28 03:30N 17°01' W 061°46'0 0.0
2018-Jan-28 03:00N 17°01' W 061°46'0 0.0
2018-Jan-28 02:30N 17°01' W 061°46'0 0.0
2018-Jan-28 02:00N 17°01' W 061°46'0 0.0
2018-Jan-28 01:30N 17°01' W 061°46'0 0.0
2018-Jan-28 01:00N 17°01' W 061°46'0 0.0
2018-Jan-28 00:30N 17°01' W 061°46'0 0.0
2018-Jan-28 00:00N 17°01' W 061°46'0 0.0
2018-Jan-27 23:30N 17°01' W 061°46'0 0.0
2018-Jan-27 23:00N 17°01' W 061°46'0 0.0
2018-Jan-27 22:30N 17°01' W 061°46'0 0.0
2018-Jan-27 22:00N 17°01' W 061°46'0 0.0
2018-Jan-27 21:30N 17°01' W 061°46'0 0.0
2018-Jan-27 21:00N 17°01' W 061°46'0 0.0
2018-Jan-27 20:30N 17°01' W 061°46'0 0.0
2018-Jan-27 20:00N 17°01' W 061°46'0 0.0
2018-Jan-27 19:30N 17°01' W 061°46'0 0.0
2018-Jan-27 19:00N 17°01' W 061°46'0 0.0
2018-Jan-27 18:30N 17°01' W 061°46'0 0.0
2018-Jan-27 18:00N 17°01' W 061°46'0 0.0
2018-Jan-27 17:30N 17°01' W 061°46'0 0.0
2018-Jan-27 17:00N 17°01' W 061°46'0 0.0
2018-Jan-27 16:30N 17°01' W 061°46'0 0.0
2018-Jan-27 16:00N 17°01' W 061°46'0 0.0
2018-Jan-27 15:30N 17°01' W 061°46'0 0.0
2018-Jan-27 15:00N 17°01' W 061°46'0 0.0
2018-Jan-27 14:30N 17°01' W 061°46'0 0.0
2018-Jan-27 14:00N 17°01' W 061°46'0 0.0
2018-Jan-27 13:30N 17°01' W 061°46'0 0.0
2018-Jan-27 13:00N 17°01' W 061°46'0 0.0
2018-Jan-27 12:30N 17°01' W 061°46'0 0.0
2018-Jan-27 11:57N 17°01' W 061°46'0 0.0
2018-Jan-27 11:30N 17°01' W 061°46'0 0.0
2018-Jan-27 11:00N 17°01' W 061°46'0 0.0
2018-Jan-27 10:30N 17°01' W 061°46'0 0.0
2018-Jan-27 10:00N 17°01' W 061°46'0 0.0
2018-Jan-27 09:30N 17°01' W 061°46'0 0.0
2018-Jan-27 09:00N 17°01' W 061°46'0 0.0
2018-Jan-27 08:30N 17°01' W 061°46'0 0.0
2018-Jan-27 08:00N 17°01' W 061°46'0 0.0
2018-Jan-27 07:30N 17°01' W 061°46'0 0.0
2018-Jan-27 07:00N 17°01' W 061°46'0 0.0
2018-Jan-27 06:30N 17°01' W 061°46'0 0.0
2018-Jan-27 06:00N 17°01' W 061°46'0 0.0
2018-Jan-27 05:30N 17°01' W 061°46'0 0.0
2018-Jan-27 05:00N 17°01' W 061°46'0 0.0
2018-Jan-27 04:30N 17°01' W 061°46'0 0.0
2018-Jan-27 04:00N 17°01' W 061°46'0 0.0
2018-Jan-27 03:30N 17°01' W 061°46'0 0.0
2018-Jan-27 03:00N 17°01' W 061°46'0 0.0
2018-Jan-27 02:30N 17°01' W 061°46'0 0.0
2018-Jan-27 02:00N 17°01' W 061°46'0 0.0
2018-Jan-27 01:27N 17°01' W 061°46'0 0.0
2018-Jan-27 01:00N 17°01' W 061°46'0 0.0
2018-Jan-27 00:30N 17°01' W 061°46'0 0.0
2018-Jan-27 00:00N 17°01' W 061°46'0 0.0
2018-Jan-26 23:30N 17°01' W 061°46'0 0.0
2018-Jan-26 23:00N 17°01' W 061°46'0 0.0
2018-Jan-26 22:30N 17°01' W 061°46'0 0.0
2018-Jan-26 22:00N 17°01' W 061°46'0 0.0
2018-Jan-26 21:30N 17°01' W 061°46'0 0.0
2018-Jan-26 21:00N 17°01' W 061°46'0 0.0
2018-Jan-26 20:30N 17°01' W 061°46'0 0.0
2018-Jan-26 20:00N 17°01' W 061°46'0 0.0
2018-Jan-26 19:30N 17°01' W 061°46'0 0.0
2018-Jan-26 19:00N 17°01' W 061°46'0 0.0
2018-Jan-26 18:30N 17°01' W 061°46'0 0.0
2018-Jan-26 18:00N 17°01' W 061°46'0 0.0
2018-Jan-26 17:30N 17°01' W 061°46'0 0.0
2018-Jan-26 17:00N 17°01' W 061°46'0 0.0
2018-Jan-26 16:30N 17°01' W 061°46'0 0.0
2018-Jan-26 16:00N 17°01' W 061°46'0 0.0
2018-Jan-26 15:30N 17°01' W 061°46'  

Dump ship's entire track history